Amaicha del Valle, Argentina
Current Conditions -  °F | °C
As of 7:00 AM on Saturday 27 Dec 2014 (Local Time) from SANT Reporting Station
Scattered Clouds Scattered Clouds  
Wind Chill: 70°   Ceiling: Unl
Heat Index: 70°   Visibility: 6mi
Dew Point: 64°   Wind: 2mph
Humidity: 83%   Direction: 180°S
Pressure: 29.88"   Gusts: NA
Location:  26.73°S, 65.8°W
Report Text: SANT 271000Z 18002KT 9999 FEW035 SCT10021/18 Q1012
Loading
Personal Weather Stations






























Interactive Weather Map New forecast layout! Learn more

10-Day Weather Forecast

Advertisements
Track Severe Weather on mobile